Time,TemperatureF,DewpointF,PressureIn,WindDirection,WindDirectionDegrees,WindSpeedMPH,WindSpeedGustMPH,Humidity,HourlyPrecipIn,Conditions,Clouds,dailyrainin,SoftwareType,DateUTC
2013-07-08 00:02:00,75.0,72.0,30.06,South,181,0.0,-999.0,89,-99.99,,,-99.99,,2013-07-08 04:02:00,
2013-07-08 00:12:00,75.0,71.0,30.06,South,179,0.0,-999.0,88,-99.99,,,-99.99,,2013-07-08 04:12:00,
2013-07-08 00:22:00,75.0,71.0,30.06,South,179,0.0,-999.0,88,-99.99,,,-99.99,,2013-07-08 04:22:00,
2013-07-08 00:33:00,75.0,71.0,30.06,South,175,0.0,-999.0,88,-99.99,,,-99.99,,2013-07-08 04:33:00,
2013-07-08 00:42:00,76.0,71.0,30.06,South,175,1.0,-999.0,85,-99.99,,,-99.99,,2013-07-08 04:42:00,
2013-07-08 01:01:00,76.0,70.0,30.06,South,175,1.0,-999.0,83,-99.99,,,-99.99,,2013-07-08 05:01:00,
2013-07-08 01:12:00,76.0,70.0,30.06,South,175,0.0,-999.0,82,-99.99,,,-99.99,,2013-07-08 05:12:00,
2013-07-08 01:33:00,76.0,70.0,30.06,South,175,0.0,-999.0,82,-99.99,,,-99.99,,2013-07-08 05:33:00,
2013-07-08 01:43:00,76.0,70.0,30.06,South,175,0.0,-999.0,82,-99.99,,,-99.99,,2013-07-08 05:43:00,
2013-07-08 02:01:00,76.0,70.0,30.05,South,175,0.0,-999.0,82,-99.99,,,-99.99,,2013-07-08 06:01:00,
2013-07-08 02:12:00,76.0,70.0,30.05,South,175,0.0,-999.0,82,-99.99,,,-99.99,,2013-07-08 06:12:00,
2013-07-08 02:22:00,76.0,70.0,30.05,South,175,0.0,-999.0,82,-99.99,,,-99.99,,2013-07-08 06:22:00,
2013-07-08 02:33:00,76.0,70.0,30.05,South,175,0.0,-999.0,83,-99.99,,,-99.99,,2013-07-08 06:33:00,
2013-07-08 02:43:00,75.0,69.0,30.05,South,175,0.0,-999.0,83,-99.99,,,-99.99,,2013-07-08 06:43:00,
2013-07-08 03:02:00,75.0,69.0,30.05,South,175,0.0,-999.0,83,-99.99,,,-99.99,,2013-07-08 07:02:00,
2013-07-08 03:12:00,75.0,69.0,30.05,South,175,1.0,-999.0,83,-99.99,,,-99.99,,2013-07-08 07:12:00,
2013-07-08 03:34:00,75.0,70.0,30.05,South,176,1.0,-999.0,84,-99.99,,,-99.99,,2013-07-08 07:34:00,
2013-07-08 03:44:00,75.0,70.0,30.05,South,176,1.0,-999.0,84,-99.99,,,-99.99,,2013-07-08 07:44:00,
2013-07-08 03:53:00,75.0,70.0,30.05,South,176,1.0,-999.0,84,-99.99,,,-99.99,,2013-07-08 07:53:00,
2013-07-08 04:02:00,75.0,70.0,30.06,South,176,0.0,-999.0,84,-99.99,,,-99.99,,2013-07-08 08:02:00,
2013-07-08 04:12:00,75.0,70.0,30.06,South,176,0.0,-999.0,84,-99.99,,,-99.99,,2013-07-08 08:12:00,
2013-07-08 04:22:00,75.0,70.0,30.06,South,176,0.0,-999.0,85,-99.99,,,-99.99,,2013-07-08 08:22:00,
2013-07-08 04:33:00,75.0,70.0,30.06,South,176,0.0,-999.0,84,-99.99,,,-99.99,,2013-07-08 08:33:00,
2013-07-08 04:42:00,75.0,70.0,30.06,South,176,0.0,-999.0,84,-99.99,,,-99.99,,2013-07-08 08:42:00,
2013-07-08 04:53:00,75.0,70.0,30.05,South,176,0.0,-999.0,84,-99.99,,,-99.99,,2013-07-08 08:53:00,
2013-07-08 05:02:00,75.0,70.0,30.05,South,176,0.0,-999.0,85,-99.99,,,-99.99,,2013-07-08 09:02:00,
2013-07-08 05:11:00,75.0,70.0,30.05,South,176,0.0,-999.0,85,-99.99,,,-99.99,,2013-07-08 09:11:00,
2013-07-08 05:34:00,74.0,70.0,30.04,South,176,1.0,-999.0,86,-99.99,,,-99.99,,2013-07-08 09:34:00,
2013-07-08 05:43:00,74.0,70.0,30.04,South,176,1.0,-999.0,86,-99.99,,,-99.99,,2013-07-08 09:43:00,
2013-07-08 05:52:00,74.0,70.0,30.04,South,176,1.0,-999.0,87,-99.99,,,-99.99,,2013-07-08 09:52:00,
2013-07-08 06:02:00,74.0,70.0,30.04,South,175,1.0,-999.0,87,-99.99,,,-99.99,,2013-07-08 10:02:00,
2013-07-08 06:11:00,73.0,69.0,30.04,South,175,1.0,-999.0,87,-99.99,,,-99.99,,2013-07-08 10:11:00,
2013-07-08 06:34:00,73.0,69.0,30.04,South,175,1.0,-999.0,88,-99.99,,,-99.99,,2013-07-08 10:34:00,
2013-07-08 06:43:00,73.0,69.0,30.04,South,175,1.0,-999.0,88,-99.99,,,-99.99,,2013-07-08 10:43:00,
2013-07-08 06:53:00,73.0,69.0,30.04,South,175,1.0,-999.0,87,-99.99,,,-99.99,,2013-07-08 10:53:00,
2013-07-08 07:02:00,73.0,69.0,30.05,South,175,1.0,-999.0,87,-99.99,,,-99.99,,2013-07-08 11:02:00,
2013-07-08 07:11:00,73.0,69.0,30.05,South,175,1.0,-999.0,86,-99.99,,,-99.99,,2013-07-08 11:11:00,
2013-07-08 07:23:00,74.0,70.0,30.06,South,175,1.0,-999.0,86,-99.99,,,-99.99,,2013-07-08 11:23:00,
2013-07-08 07:33:00,74.0,70.0,30.06,South,175,1.0,-999.0,86,-99.99,,,-99.99,,2013-07-08 11:33:00,
2013-07-08 07:43:00,74.0,69.0,30.06,South,175,1.0,-999.0,85,-99.99,,,-99.99,,2013-07-08 11:43:00,
2013-07-08 08:01:00,75.0,70.0,30.05,South,174,1.0,-999.0,85,-99.99,,,-99.99,,2013-07-08 12:01:00,
2013-07-08 08:11:00,75.0,70.0,30.05,South,175,1.0,-999.0,84,-99.99,,,-99.99,,2013-07-08 12:11:00,
2013-07-08 08:22:00,75.0,69.0,30.06,South,174,1.0,-999.0,83,-99.99,,,-99.99,,2013-07-08 12:22:00,
2013-07-08 08:34:00,76.0,70.0,30.06,South,179,1.0,-999.0,82,-99.99,,,-99.99,,2013-07-08 12:34:00,
2013-07-08 08:43:00,76.0,70.0,30.06,South,179,2.0,-999.0,82,-99.99,,,-99.99,,2013-07-08 12:43:00,
2013-07-08 08:53:00,76.0,70.0,30.06,South,181,2.0,-999.0,82,-99.99,,,-99.99,,2013-07-08 12:53:00,
2013-07-08 09:02:00,75.0,69.0,30.06,SSW,196,1.0,-999.0,82,-99.99,,,-99.99,,2013-07-08 13:02:00,
2013-07-08 09:53:00,76.0,70.0,30.07,South,188,2.0,-999.0,82,-99.99,,,-99.99,,2013-07-08 13:53:00,
2013-07-08 10:02:00,77.0,71.0,30.07,SW,216,3.0,-999.0,81,-99.99,,,-99.99,,2013-07-08 14:02:00,
2013-07-08 10:22:00,77.0,70.0,30.07,South,191,2.0,-999.0,80,-99.99,,,-99.99,,2013-07-08 14:22:00,
2013-07-08 10:34:00,77.0,70.0,30.07,South,191,2.0,-999.0,80,-99.99,,,-99.99,,2013-07-08 14:34:00,
2013-07-08 10:43:00,77.0,70.0,30.08,SSW,193,2.0,-999.0,79,-99.99,,,-99.99,,2013-07-08 14:43:00,
2013-07-08 10:53:00,77.0,70.0,30.08,SSW,206,2.0,-999.0,79,-99.99,,,-99.99,,2013-07-08 14:53:00,
2013-07-08 11:22:00,77.0,71.0,30.08,South,175,1.0,-999.0,81,-99.99,,,-99.99,,2013-07-08 15:22:00,
2013-07-08 11:43:00,76.0,71.0,30.10,SW,215,1.0,-999.0,84,-99.99,,,-99.99,,2013-07-08 15:43:00,
2013-07-08 11:53:00,76.0,71.0,30.10,SW,215,0.0,-999.0,85,-99.99,,,-99.99,,2013-07-08 15:53:00,
2013-07-08 12:11:00,75.0,70.0,30.10,SSW,213,1.0,-999.0,85,-99.99,,,-99.99,,2013-07-08 16:11:00,
2013-07-08 12:43:00,75.0,69.0,30.10,SSW,208,2.0,-999.0,83,-99.99,,,-99.99,,2013-07-08 16:43:00,
2013-07-08 12:54:00,75.0,69.0,30.10,South,172,2.0,-999.0,83,-99.99,,,-99.99,,2013-07-08 16:54:00,
2013-07-08 14:09:00,73.0,70.0,30.09,SSW,199,0.0,-999.0,90,-99.99,,,-99.99,,2013-07-08 18:09:00,
2013-07-08 14:50:00,70.0,68.0,30.06,South,178,2.0,-999.0,92,-99.99,,,-99.99,,2013-07-08 18:50:00,
2013-07-08 14:56:00,70.0,68.0,30.06,South,178,1.0,-999.0,92,-99.99,,,-99.99,,2013-07-08 18:56:00,
2013-07-08 15:19:00,70.0,68.0,30.05,South,178,2.0,-999.0,92,-99.99,,,-99.99,,2013-07-08 19:19:00,
2013-07-08 15:38:00,70.0,67.0,30.04,South,178,2.0,-999.0,91,-99.99,,,-99.99,,2013-07-08 19:38:00,
2013-07-08 15:51:00,71.0,68.0,30.04,South,178,2.0,-999.0,90,-99.99,,,-99.99,,2013-07-08 19:51:00,
2013-07-08 16:21:00,73.0,69.0,30.03,South,186,2.0,-999.0,87,-99.99,,,-99.99,,2013-07-08 20:21:00,
2013-07-08 16:43:00,75.0,69.0,30.02,South,189,2.0,-999.0,82,-99.99,,,-99.99,,2013-07-08 20:43:00,
2013-07-08 17:14:00,76.0,69.0,30.01,South,189,1.0,-999.0,79,-99.99,,,-99.99,,2013-07-08 21:14:00,
2013-07-08 17:51:00,77.0,70.0,30.01,South,175,1.0,-999.0,79,-99.99,,,-99.99,,2013-07-08 21:51:00,
2013-07-08 18:22:00,77.0,70.0,30.01,South,175,1.0,-999.0,79,-99.99,,,-99.99,,2013-07-08 22:22:00,
2013-07-08 18:53:00,78.0,72.0,30.01,South,175,0.0,-999.0,82,-99.99,,,-99.99,,2013-07-08 22:53:00,
2013-07-08 19:15:00,78.0,73.0,30.01,South,174,0.0,-999.0,84,-99.99,,,-99.99,,2013-07-08 23:15:00,
2013-07-08 19:21:00,77.0,72.0,30.01,South,174,0.0,-999.0,85,-99.99,,,-99.99,,2013-07-08 23:21:00,
2013-07-08 19:31:00,77.0,72.0,30.01,South,174,0.0,-999.0,85,-99.99,,,-99.99,,2013-07-08 23:31:00,
2013-07-08 19:44:00,77.0,72.0,30.01,SE,145,0.0,-999.0,85,-99.99,,,-99.99,,2013-07-08 23:44:00,
2013-07-08 19:53:00,77.0,72.0,30.01,SE,144,0.0,-999.0,86,-99.99,,,-99.99,,2013-07-08 23:53:00,
2013-07-08 20:15:00,77.0,72.0,30.00,SE,144,0.0,-999.0,86,-99.99,,,-99.99,,2013-07-09 00:15:00,
2013-07-08 20:31:00,77.0,72.0,30.00,SE,144,0.0,-999.0,86,-99.99,,,-99.99,,2013-07-09 00:31:00,
2013-07-08 20:42:00,77.0,73.0,30.00,SE,144,0.0,-999.0,87,-99.99,,,-99.99,,2013-07-09 00:42:00,
2013-07-08 20:54:00,77.0,73.0,30.01,SE,144,1.0,-999.0,87,-99.99,,,-99.99,,2013-07-09 00:54:00,
2013-07-08 20:59:00,76.0,72.0,30.01,SE,144,0.0,-999.0,87,-99.99,,,-99.99,,2013-07-09 00:59:00,
2013-07-08 21:22:00,76.0,72.0,30.01,SE,144,0.0,-999.0,87,-99.99,,,-99.99,,2013-07-09 01:22:00,
2013-07-08 21:54:00,76.0,73.0,30.01,SE,143,0.0,2.0,90,-99.99,,,-99.99,,2013-07-09 01:54:00,
2013-07-08 22:01:00,76.0,73.0,30.01,SE,143,0.0,-999.0,91,-99.99,,,-99.99,,2013-07-09 02:01:00,
2013-07-08 22:25:00,-999.0,-99.9,30.01,SE,143,0.0,-999.0,92,-99.99,,,-99.99,,2013-07-09 02:25:00,
2013-07-08 22:31:00,75.0,73.0,30.00,SE,143,1.0,-999.0,93,-99.99,,,-99.99,,2013-07-09 02:31:00,
2013-07-08 22:54:00,75.0,73.0,30.01,SSE,152,0.0,-999.0,93,-99.99,,,-99.99,,2013-07-09 02:54:00,